Time,TemperatureF,DewpointF,PressureIn,WindDirection,WindDirectionDegrees,WindSpeedMPH,WindSpeedGustMPH,Humidity,HourlyPrecipIn,Conditions,Clouds,dailyrainin,SolarRadiationWatts/m^2,SoftwareType,DateUTC
2013-05-24 00:00:00,44.0,42.0,-100.00,SW,217,2.0,-999.0,91,0.11,,,-99.99,0.000000,,2013-05-24 07:00:00,
2013-05-24 00:42:00,44.0,42.0,-100.00,SW,217,2.0,-999.0,91,0.11,,,-99.99,0.000000,,2013-05-24 07:42:00,
2013-05-24 00:52:00,44.0,42.0,-100.00,SW,217,2.0,-999.0,91,0.11,,,-99.99,0.000000,,2013-05-24 07:52:00,
2013-05-24 01:00:00,43.0,40.0,-100.00,SSE,153,3.0,-999.0,88,0.05,,,-99.99,0.000000,,2013-05-24 08:00:00,
2013-05-24 01:42:00,43.0,40.0,-100.00,SSE,153,3.0,-999.0,88,0.05,,,-99.99,0.000000,,2013-05-24 08:42:00,
2013-05-24 01:52:00,43.0,40.0,-100.00,SSE,153,3.0,-999.0,88,0.05,,,-99.99,0.000000,,2013-05-24 08:52:00,
2013-05-24 02:00:00,43.0,41.0,-100.00,SE,131,1.0,-999.0,90,0.01,,,-99.99,0.000000,,2013-05-24 09:00:00,
2013-05-24 02:42:00,43.0,41.0,-100.00,SE,131,1.0,-999.0,90,0.01,,,-99.99,0.000000,,2013-05-24 09:42:00,
2013-05-24 02:53:00,43.0,41.0,-100.00,SE,131,1.0,-999.0,90,0.01,,,-99.99,0.000000,,2013-05-24 09:53:00,
2013-05-24 03:00:00,43.0,40.0,-100.00,NNE,29,0.0,-999.0,89,0.00,,,-99.99,0.000000,,2013-05-24 10:00:00,
2013-05-24 03:42:00,43.0,40.0,-100.00,NNE,29,0.0,-999.0,89,0.00,,,-99.99,0.000000,,2013-05-24 10:42:00,
2013-05-24 03:52:00,43.0,40.0,-100.00,NNE,29,0.0,-999.0,89,0.00,,,-99.99,0.000000,,2013-05-24 10:52:00,
2013-05-24 04:00:00,43.0,40.0,-100.00,South,187,2.0,-999.0,91,0.01,,,-99.99,0.000000,,2013-05-24 11:00:00,
2013-05-24 04:42:00,43.0,40.0,-100.00,South,187,2.0,-999.0,91,0.01,,,-99.99,0.000000,,2013-05-24 11:42:00,
2013-05-24 04:52:00,43.0,40.0,-100.00,South,187,2.0,-999.0,91,0.01,,,-99.99,0.000000,,2013-05-24 11:52:00,
2013-05-24 05:00:00,42.0,40.0,-100.00,South,179,3.0,-999.0,92,0.01,,,-99.99,0.000000,,2013-05-24 12:00:00,
2013-05-24 05:42:00,42.0,40.0,-100.00,South,179,3.0,-999.0,92,0.01,,,-99.99,0.000000,,2013-05-24 12:42:00,
2013-05-24 05:52:00,42.0,40.0,-100.00,South,179,3.0,-999.0,92,0.01,,,-99.99,0.000000,,2013-05-24 12:52:00,
2013-05-24 06:00:00,42.0,40.0,-100.00,South,177,5.0,-999.0,92,0.03,,,-99.99,2.000000,,2013-05-24 13:00:00,
2013-05-24 06:42:00,42.0,40.0,-100.00,South,177,5.0,-999.0,92,0.03,,,-99.99,2.000000,,2013-05-24 13:42:00,
2013-05-24 06:52:00,42.0,40.0,-100.00,South,177,5.0,-999.0,92,0.03,,,-99.99,2.000000,,2013-05-24 13:52:00,
2013-05-24 07:00:00,43.0,41.0,-100.00,WSW,242,2.0,-999.0,90,0.01,,,-99.99,51.000000,,2013-05-24 14:00:00,
2013-05-24 07:42:00,43.0,41.0,-100.00,WSW,242,2.0,-999.0,90,0.01,,,-99.99,51.000000,,2013-05-24 14:42:00,
2013-05-24 07:52:00,43.0,41.0,-100.00,WSW,242,2.0,-999.0,90,0.01,,,-99.99,51.000000,,2013-05-24 14:52:00,
2013-05-24 08:00:00,44.0,40.0,-100.00,WSW,250,7.0,-999.0,83,0.00,,,-99.99,98.000000,,2013-05-24 15:00:00,
2013-05-24 08:43:00,44.0,40.0,-100.00,WSW,250,7.0,-999.0,83,0.00,,,-99.99,98.000000,,2013-05-24 15:43:00,
2013-05-24 08:52:00,44.0,40.0,-100.00,WSW,250,7.0,-999.0,83,0.00,,,-99.99,98.000000,,2013-05-24 15:52:00,
2013-05-24 09:00:00,45.0,40.0,-100.00,West,275,6.0,-999.0,82,0.00,,,-99.99,199.000000,,2013-05-24 16:00:00,
2013-05-24 09:42:00,45.0,40.0,-100.00,West,275,6.0,-999.0,82,0.00,,,-99.99,199.000000,,2013-05-24 16:42:00,
2013-05-24 09:52:00,45.0,40.0,-100.00,West,275,6.0,-999.0,82,0.00,,,-99.99,199.000000,,2013-05-24 16:52:00,
2013-05-24 10:00:00,48.0,40.0,-100.00,WNW,289,7.0,-999.0,72,0.00,,,-99.99,500.000000,,2013-05-24 17:00:00,
2013-05-24 10:42:00,48.0,40.0,-100.00,WNW,289,7.0,-999.0,72,0.00,,,-99.99,500.000000,,2013-05-24 17:42:00,
2013-05-24 10:52:00,48.0,40.0,-100.00,WNW,289,7.0,-999.0,72,0.00,,,-99.99,500.000000,,2013-05-24 17:52:00,
2013-05-24 11:00:00,50.0,41.0,-100.00,WNW,293,6.0,-999.0,71,0.00,,,-99.99,653.000000,,2013-05-24 18:00:00,
2013-05-24 11:42:00,50.0,41.0,-100.00,WNW,293,6.0,-999.0,71,0.00,,,-99.99,653.000000,,2013-05-24 18:42:00,
2013-05-24 11:52:00,50.0,41.0,-100.00,WNW,293,6.0,-999.0,71,0.00,,,-99.99,653.000000,,2013-05-24 18:52:00,
2013-05-24 12:00:00,52.0,39.0,-100.00,WNW,291,7.0,-999.0,61,0.00,,,-99.99,686.000000,,2013-05-24 19:00:00,
2013-05-24 12:42:00,52.0,39.0,-100.00,WNW,291,7.0,-999.0,61,0.00,,,-99.99,686.000000,,2013-05-24 19:42:00,
2013-05-24 12:52:00,52.0,39.0,-100.00,WNW,291,7.0,-999.0,61,0.00,,,-99.99,686.000000,,2013-05-24 19:52:00,
2013-05-24 13:00:00,53.0,40.0,-100.00,WNW,291,7.0,-999.0,60,0.00,,,-99.99,641.000000,,2013-05-24 20:00:00,
2013-05-24 13:42:00,53.0,40.0,-100.00,WNW,291,7.0,-999.0,60,0.00,,,-99.99,641.000000,,2013-05-24 20:42:00,
2013-05-24 13:52:00,53.0,40.0,-100.00,WNW,291,7.0,-999.0,60,0.00,,,-99.99,641.000000,,2013-05-24 20:52:00,
2013-05-24 14:00:00,54.0,41.0,-100.00,WNW,288,9.0,-999.0,62,0.00,,,-99.99,502.000000,,2013-05-24 21:00:00,
2013-05-24 14:43:00,54.0,41.0,-100.00,WNW,288,9.0,-999.0,62,0.00,,,-99.99,502.000000,,2013-05-24 21:43:00,
2013-05-24 14:53:00,54.0,41.0,-100.00,WNW,288,9.0,-999.0,62,0.00,,,-99.99,502.000000,,2013-05-24 21:53:00,
2013-05-24 15:00:00,54.0,41.0,-100.00,West,267,9.0,-999.0,61,0.00,,,-99.99,445.000000,,2013-05-24 22:00:00,
2013-05-24 15:42:00,54.0,41.0,-100.00,West,267,9.0,-999.0,61,0.00,,,-99.99,445.000000,,2013-05-24 22:42:00,
2013-05-24 15:52:00,54.0,41.0,-100.00,West,267,9.0,-999.0,61,0.00,,,-99.99,445.000000,,2013-05-24 22:52:00,
2013-05-24 16:00:00,56.0,36.0,-100.00,WNW,285,10.0,-999.0,48,0.00,,,-99.99,544.000000,,2013-05-24 23:00:00,
2013-05-24 16:42:00,56.0,36.0,-100.00,WNW,285,10.0,-999.0,48,0.00,,,-99.99,544.000000,,2013-05-24 23:42:00,
2013-05-24 16:52:00,56.0,36.0,-100.00,WNW,285,10.0,-999.0,48,0.00,,,-99.99,544.000000,,2013-05-24 23:52:00,
2013-05-24 17:00:00,57.0,40.0,-100.00,WNW,289,11.0,-999.0,51,0.00,,,-99.99,701.000000,,2013-05-25 00:00:00,
2013-05-24 17:42:00,57.0,40.0,-100.00,WNW,289,11.0,-999.0,51,0.00,,,-99.99,701.000000,,2013-05-25 00:42:00,
2013-05-24 17:52:00,57.0,40.0,-100.00,WNW,289,11.0,-999.0,51,0.00,,,-99.99,701.000000,,2013-05-25 00:52:00,
2013-05-24 18:00:00,56.0,41.0,-100.00,WNW,295,10.0,-999.0,56,0.00,,,-99.99,354.000000,,2013-05-25 01:00:00,
2013-05-24 18:42:00,56.0,41.0,-100.00,WNW,295,10.0,-999.0,56,0.00,,,-99.99,354.000000,,2013-05-25 01:42:00,
2013-05-24 18:52:00,56.0,41.0,-100.00,WNW,295,10.0,-999.0,56,0.00,,,-99.99,354.000000,,2013-05-25 01:52:00,
2013-05-24 19:00:00,54.0,40.0,-100.00,WNW,288,11.0,-999.0,58,0.00,,,-99.99,216.000000,,2013-05-25 02:00:00,
2013-05-24 19:42:00,54.0,40.0,-100.00,WNW,288,11.0,-999.0,58,0.00,,,-99.99,216.000000,,2013-05-25 02:42:00,
2013-05-24 19:52:00,54.0,40.0,-100.00,WNW,288,11.0,-999.0,58,0.00,,,-99.99,216.000000,,2013-05-25 02:52:00,
2013-05-24 20:00:00,52.0,40.0,-100.00,WNW,298,9.0,-999.0,63,0.00,,,-99.99,99.000000,,2013-05-25 03:00:00,
2013-05-24 20:43:00,52.0,40.0,-100.00,WNW,298,9.0,-999.0,63,0.00,,,-99.99,99.000000,,2013-05-25 03:43:00,
2013-05-24 20:53:00,52.0,40.0,-100.00,WNW,298,9.0,-999.0,63,0.00,,,-99.99,99.000000,,2013-05-25 03:53:00,
2013-05-24 21:00:00,49.0,42.0,-100.00,WNW,299,9.0,-999.0,75,0.00,,,-99.99,23.000000,,2013-05-25 04:00:00,
2013-05-24 21:43:00,49.0,42.0,-100.00,WNW,299,9.0,-999.0,75,0.00,,,-99.99,23.000000,,2013-05-25 04:43:00,
2013-05-24 21:52:00,49.0,42.0,-100.00,WNW,299,9.0,-999.0,75,0.00,,,-99.99,23.000000,,2013-05-25 04:52:00,
2013-05-24 22:00:00,47.0,41.0,-100.00,WNW,287,11.0,-999.0,80,0.00,,,-99.99,0.000000,,2013-05-25 05:00:00,
2013-05-24 22:43:00,47.0,41.0,-100.00,WNW,287,11.0,-999.0,80,0.00,,,-99.99,0.000000,,2013-05-25 05:43:00,
2013-05-24 22:52:00,47.0,41.0,-100.00,WNW,287,11.0,-999.0,80,0.00,,,-99.99,0.000000,,2013-05-25 05:52:00,
2013-05-24 23:00:00,46.0,41.0,-100.00,West,279,12.0,-999.0,81,0.00,,,-99.99,0.000000,,2013-05-25 06:00:00,
2013-05-24 23:42:00,46.0,41.0,-100.00,West,279,12.0,-999.0,81,0.00,,,-99.99,0.000000,,2013-05-25 06:42:00,
2013-05-24 23:52:00,46.0,41.0,-100.00,West,279,12.0,-999.0,81,0.00,,,-99.99,0.000000,,2013-05-25 06:52:00,